sensor_id;sensor_type;location;lat;lon;timestamp;temperature;humidity
31729;DHT22;18309;43.658;1.312;2022-08-01T00:01:48;27.60;70.10
31729;DHT22;18309;43.658;1.312;2022-08-01T00:04:13;27.60;70.20
31729;DHT22;18309;43.658;1.312;2022-08-01T00:06:39;27.60;70.50
31729;DHT22;18309;43.658;1.312;2022-08-01T00:09:05;27.60;70.60
31729;DHT22;18309;43.658;1.312;2022-08-01T00:11:30;27.50;70.60
31729;DHT22;18309;43.658;1.312;2022-08-01T00:13:56;27.50;70.70
31729;DHT22;18309;43.658;1.312;2022-08-01T00:16:22;27.50;70.90
31729;DHT22;18309;43.658;1.312;2022-08-01T00:18:50;27.50;71.30
31729;DHT22;18309;43.658;1.312;2022-08-01T00:21:17;27.40;71.50
31729;DHT22;18309;43.658;1.312;2022-08-01T00:23:43;27.40;71.80
31729;DHT22;18309;43.658;1.312;2022-08-01T00:26:11;27.30;72.20
31729;DHT22;18309;43.658;1.312;2022-08-01T00:28:37;27.30;72.60
31729;DHT22;18309;43.658;1.312;2022-08-01T00:31:03;27.20;73.30
31729;DHT22;18309;43.658;1.312;2022-08-01T00:33:28;27.20;73.60
31729;DHT22;18309;43.658;1.312;2022-08-01T00:35:54;27.20;74.10
31729;DHT22;18309;43.658;1.312;2022-08-01T00:38:20;27.20;74.30
31729;DHT22;18309;43.658;1.312;2022-08-01T00:40:47;27.10;74.40
31729;DHT22;18309;43.658;1.312;2022-08-01T00:43:12;27.00;74.50
31729;DHT22;18309;43.658;1.312;2022-08-01T00:45:38;27.10;74.80
31729;DHT22;18309;43.658;1.312;2022-08-01T00:48:04;27.00;75.40
31729;DHT22;18309;43.658;1.312;2022-08-01T00:50:30;26.90;76.10
31729;DHT22;18309;43.658;1.312;2022-08-01T00:52:55;26.90;76.60
31729;DHT22;18309;43.658;1.312;2022-08-01T00:55:23;26.80;76.80
31729;DHT22;18309;43.658;1.312;2022-08-01T00:57:49;26.80;77.20
31729;DHT22;18309;43.658;1.312;2022-08-01T01:00:15;26.70;77.60
31729;DHT22;18309;43.658;1.312;2022-08-01T01:02:41;26.70;77.80
31729;DHT22;18309;43.658;1.312;2022-08-01T01:05:07;26.60;78.20
31729;DHT22;18309;43.658;1.312;2022-08-01T01:07:54;26.60;78.60
31729;DHT22;18309;43.658;1.312;2022-08-01T01:10:48;26.50;79.10
31729;DHT22;18309;43.658;1.312;2022-08-01T01:13:43;26.50;79.50
31729;DHT22;18309;43.658;1.312;2022-08-01T01:16:15;26.50;79.50
31729;DHT22;18309;43.658;1.312;2022-08-01T01:18:55;26.50;79.70
31729;DHT22;18309;43.658;1.312;2022-08-01T01:24:15;26.40;80.20
31729;DHT22;18309;43.658;1.312;2022-08-01T01:27:18;26.40;80.40
31729;DHT22;18309;43.658;1.312;2022-08-01T01:29:51;26.30;80.80
31729;DHT22;18309;43.658;1.312;2022-08-01T01:32:23;26.30;81.10
31729;DHT22;18309;43.658;1.312;2022-08-01T01:34:54;26.20;81.20
31729;DHT22;18309;43.658;1.312;2022-08-01T01:37:22;26.20;81.40
31729;DHT22;18309;43.658;1.312;2022-08-01T01:39:50;26.10;81.50
31729;DHT22;18309;43.658;1.312;2022-08-01T01:42:17;26.10;81.60
31729;DHT22;18309;43.658;1.312;2022-08-01T01:44:45;26.10;81.80
31729;DHT22;18309;43.658;1.312;2022-08-01T01:47:13;26.00;81.90
31729;DHT22;18309;43.658;1.312;2022-08-01T01:49:40;26.00;82.10
31729;DHT22;18309;43.658;1.312;2022-08-01T01:52:07;25.90;82.30
31729;DHT22;18309;43.658;1.312;2022-08-01T01:54:37;25.90;82.40
31729;DHT22;18309;43.658;1.312;2022-08-01T01:57:05;25.90;82.50
31729;DHT22;18309;43.658;1.312;2022-08-01T01:59:34;25.80;82.80
31729;DHT22;18309;43.658;1.312;2022-08-01T02:02:03;25.70;83.30
31729;DHT22;18309;43.658;1.312;2022-08-01T02:04:30;25.60;83.40
31729;DHT22;18309;43.658;1.312;2022-08-01T02:06:58;25.70;83.50
31729;DHT22;18309;43.658;1.312;2022-08-01T02:09:26;25.60;83.50
31729;DHT22;18309;43.658;1.312;2022-08-01T02:11:53;25.60;83.80
31729;DHT22;18309;43.658;1.312;2022-08-01T02:14:20;25.50;83.90
31729;DHT22;18309;43.658;1.312;2022-08-01T02:16:49;25.50;84.00
31729;DHT22;18309;43.658;1.312;2022-08-01T02:19:17;25.50;84.00
31729;DHT22;18309;43.658;1.312;2022-08-01T02:21:52;25.40;84.40
31729;DHT22;18309;43.658;1.312;2022-08-01T02:27:13;25.30;84.40
31729;DHT22;18309;43.658;1.312;2022-08-01T02:29:43;25.30;84.60
31729;DHT22;18309;43.658;1.312;2022-08-01T02:32:18;25.30;84.70
31729;DHT22;18309;43.658;1.312;2022-08-01T02:34:47;25.20;84.70
31729;DHT22;18309;43.658;1.312;2022-08-01T02:37:15;25.20;84.90
31729;DHT22;18309;43.658;1.312;2022-08-01T02:39:42;25.20;85.10
31729;DHT22;18309;43.658;1.312;2022-08-01T02:42:11;25.10;85.20
31729;DHT22;18309;43.658;1.312;2022-08-01T02:44:41;25.10;85.20
31729;DHT22;18309;43.658;1.312;2022-08-01T02:47:07;25.00;85.50
31729;DHT22;18309;43.658;1.312;2022-08-01T02:49:44;25.00;85.50
31729;DHT22;18309;43.658;1.312;2022-08-01T02:52:13;24.90;85.80
31729;DHT22;18309;43.658;1.312;2022-08-01T02:54:40;24.90;85.90
31729;DHT22;18309;43.658;1.312;2022-08-01T02:57:08;24.90;85.80
31729;DHT22;18309;43.658;1.312;2022-08-01T02:59:36;24.80;86.20
31729;DHT22;18309;43.658;1.312;2022-08-01T03:02:04;24.80;86.40
31729;DHT22;18309;43.658;1.312;2022-08-01T03:04:33;24.70;86.40
31729;DHT22;18309;43.658;1.312;2022-08-01T03:07:02;24.70;86.70
31729;DHT22;18309;43.658;1.312;2022-08-01T03:09:30;24.70;87.00
31729;DHT22;18309;43.658;1.312;2022-08-01T03:11:59;24.60;87.00
31729;DHT22;18309;43.658;1.312;2022-08-01T03:14:27;24.60;87.20
31729;DHT22;18309;43.658;1.312;2022-08-01T03:16:54;24.60;87.30
31729;DHT22;18309;43.658;1.312;2022-08-01T03:19:24;24.60;87.20
31729;DHT22;18309;43.658;1.312;2022-08-01T03:21:54;24.50;87.40
31729;DHT22;18309;43.658;1.312;2022-08-01T03:24:21;24.50;87.60
31729;DHT22;18309;43.658;1.312;2022-08-01T03:26:48;24.40;87.80
31729;DHT22;18309;43.658;1.312;2022-08-01T03:29:22;24.40;87.90
31729;DHT22;18309;43.658;1.312;2022-08-01T03:31:52;24.30;88.00
31729;DHT22;18309;43.658;1.312;2022-08-01T03:34:18;24.30;88.20
31729;DHT22;18309;43.658;1.312;2022-08-01T03:36:55;24.30;88.50
31729;DHT22;18309;43.658;1.312;2022-08-01T03:39:27;24.20;88.80
31729;DHT22;18309;43.658;1.312;2022-08-01T03:41:57;24.20;88.90
31729;DHT22;18309;43.658;1.312;2022-08-01T03:44:26;24.10;89.10
31729;DHT22;18309;43.658;1.312;2022-08-01T03:47:08;24.10;89.50
31729;DHT22;18309;43.658;1.312;2022-08-01T03:49:42;24.10;89.50
31729;DHT22;18309;43.658;1.312;2022-08-01T03:52:08;24.10;89.60
31729;DHT22;18309;43.658;1.312;2022-08-01T03:54:41;24.00;89.80
31729;DHT22;18309;43.658;1.312;2022-08-01T03:57:10;24.00;90.00
31729;DHT22;18309;43.658;1.312;2022-08-01T03:59:37;24.00;90.10
31729;DHT22;18309;43.658;1.312;2022-08-01T04:02:04;23.90;90.30
31729;DHT22;18309;43.658;1.312;2022-08-01T04:04:36;23.90;90.30
31729;DHT22;18309;43.658;1.312;2022-08-01T04:07:05;23.90;90.40
31729;DHT22;18309;43.658;1.312;2022-08-01T04:09:45;23.80;90.50
31729;DHT22;18309;43.658;1.312;2022-08-01T04:12:11;23.80;90.70
31729;DHT22;18309;43.658;1.312;2022-08-01T04:14:37;23.70;91.10
31729;DHT22;18309;43.658;1.312;2022-08-01T04:17:02;23.70;91.20
31729;DHT22;18309;43.658;1.312;2022-08-01T04:19:28;23.70;91.40
31729;DHT22;18309;43.658;1.312;2022-08-01T04:21:54;23.60;91.60
31729;DHT22;18309;43.658;1.312;2022-08-01T04:24:20;23.50;91.60
31729;DHT22;18309;43.658;1.312;2022-08-01T04:26:49;23.50;91.70
31729;DHT22;18309;43.658;1.312;2022-08-01T04:29:16;23.50;91.80
31729;DHT22;18309;43.658;1.312;2022-08-01T04:31:45;23.50;92.00
31729;DHT22;18309;43.658;1.312;2022-08-01T04:34:14;23.50;92.10
31729;DHT22;18309;43.658;1.312;2022-08-01T04:36:41;23.50;92.20
31729;DHT22;18309;43.658;1.312;2022-08-01T04:39:08;23.30;92.50
31729;DHT22;18309;43.658;1.312;2022-08-01T04:41:36;23.30;92.70
31729;DHT22;18309;43.658;1.312;2022-08-01T04:44:03;23.30;92.70
31729;DHT22;18309;43.658;1.312;2022-08-01T04:46:29;23.20;93.00
31729;DHT22;18309;43.658;1.312;2022-08-01T04:48:57;23.10;93.10
31729;DHT22;18309;43.658;1.312;2022-08-01T04:51:23;23.20;93.10
31729;DHT22;18309;43.658;1.312;2022-08-01T04:53:50;23.10;93.40
31729;DHT22;18309;43.658;1.312;2022-08-01T04:56:19;23.10;93.80
31729;DHT22;18309;43.658;1.312;2022-08-01T04:58:46;23.10;93.40
31729;DHT22;18309;43.658;1.312;2022-08-01T05:01:12;23.10;93.60
31729;DHT22;18309;43.658;1.312;2022-08-01T05:03:38;23.10;93.70
31729;DHT22;18309;43.658;1.312;2022-08-01T05:06:04;23.10;93.80
31729;DHT22;18309;43.658;1.312;2022-08-01T05:08:30;23.00;94.00
31729;DHT22;18309;43.658;1.312;2022-08-01T05:10:56;23.00;94.00
31729;DHT22;18309;43.658;1.312;2022-08-01T05:13:21;23.00;94.00
31729;DHT22;18309;43.658;1.312;2022-08-01T05:15:47;22.90;94.20
31729;DHT22;18309;43.658;1.312;2022-08-01T05:18:13;22.90;94.40
31729;DHT22;18309;43.658;1.312;2022-08-01T05:20:39;22.80;94.50
31729;DHT22;18309;43.658;1.312;2022-08-01T05:23:05;22.90;94.70
31729;DHT22;18309;43.658;1.312;2022-08-01T05:25:31;22.80;94.80
31729;DHT22;18309;43.658;1.312;2022-08-01T05:27:57;22.80;94.80
31729;DHT22;18309;43.658;1.312;2022-08-01T05:30:23;22.70;95.00
31729;DHT22;18309;43.658;1.312;2022-08-01T05:32:48;22.70;95.10
31729;DHT22;18309;43.658;1.312;2022-08-01T05:35:14;22.70;95.30
31729;DHT22;18309;43.658;1.312;2022-08-01T05:37:40;22.70;95.20
31729;DHT22;18309;43.658;1.312;2022-08-01T05:40:06;22.70;95.30
31729;DHT22;18309;43.658;1.312;2022-08-01T05:42:32;22.70;95.40
31729;DHT22;18309;43.658;1.312;2022-08-01T05:44:57;22.70;95.50
31729;DHT22;18309;43.658;1.312;2022-08-01T05:47:23;22.70;95.40
31729;DHT22;18309;43.658;1.312;2022-08-01T05:49:49;22.70;95.50
31729;DHT22;18309;43.658;1.312;2022-08-01T05:52:14;22.70;95.60
31729;DHT22;18309;43.658;1.312;2022-08-01T05:54:40;22.70;95.50
31729;DHT22;18309;43.658;1.312;2022-08-01T05:57:06;22.70;95.50
31729;DHT22;18309;43.658;1.312;2022-08-01T05:59:32;22.60;95.70
31729;DHT22;18309;43.658;1.312;2022-08-01T06:01:58;22.70;95.70
31729;DHT22;18309;43.658;1.312;2022-08-01T06:04:23;22.70;95.60
31729;DHT22;18309;43.658;1.312;2022-08-01T06:06:49;22.70;95.60
31729;DHT22;18309;43.658;1.312;2022-08-01T06:09:15;22.70;95.50
31729;DHT22;18309;43.658;1.312;2022-08-01T06:11:40;22.70;95.60
31729;DHT22;18309;43.658;1.312;2022-08-01T06:14:12;22.70;95.50
31729;DHT22;18309;43.658;1.312;2022-08-01T06:16:37;22.70;95.40
31729;DHT22;18309;43.658;1.312;2022-08-01T06:19:03;22.80;95.50
31729;DHT22;18309;43.658;1.312;2022-08-01T06:21:29;22.80;95.40
31729;DHT22;18309;43.658;1.312;2022-08-01T06:23:54;22.80;95.40
31729;DHT22;18309;43.658;1.312;2022-08-01T06:26:20;22.80;95.20
31729;DHT22;18309;43.658;1.312;2022-08-01T06:28:46;22.90;95.20
31729;DHT22;18309;43.658;1.312;2022-08-01T06:31:12;22.90;95.00
31729;DHT22;18309;43.658;1.312;2022-08-01T06:33:39;23.00;94.80
31729;DHT22;18309;43.658;1.312;2022-08-01T06:36:05;23.00;94.70
31729;DHT22;18309;43.658;1.312;2022-08-01T06:38:30;22.90;95.10
31729;DHT22;18309;43.658;1.312;2022-08-01T06:40:56;22.70;95.40
31729;DHT22;18309;43.658;1.312;2022-08-01T06:43:22;22.50;95.60
31729;DHT22;18309;43.658;1.312;2022-08-01T06:45:48;22.50;95.70
31729;DHT22;18309;43.658;1.312;2022-08-01T06:48:14;22.60;95.60
31729;DHT22;18309;43.658;1.312;2022-08-01T06:50:40;22.60;95.90
31729;DHT22;18309;43.658;1.312;2022-08-01T06:53:06;22.50;96.00
31729;DHT22;18309;43.658;1.312;2022-08-01T06:55:31;22.60;96.20
31729;DHT22;18309;43.658;1.312;2022-08-01T06:57:57;22.40;96.20
31729;DHT22;18309;43.658;1.312;2022-08-01T07:00:24;22.50;96.20
31729;DHT22;18309;43.658;1.312;2022-08-01T07:02:53;22.40;96.20
31729;DHT22;18309;43.658;1.312;2022-08-01T07:05:20;22.50;96.00
31729;DHT22;18309;43.658;1.312;2022-08-01T07:07:46;22.50;95.90
31729;DHT22;18309;43.658;1.312;2022-08-01T07:10:12;22.50;96.00
31729;DHT22;18309;43.658;1.312;2022-08-01T07:12:37;22.50;95.80
31729;DHT22;18309;43.658;1.312;2022-08-01T07:15:08;22.50;95.90
31729;DHT22;18309;43.658;1.312;2022-08-01T07:17:39;22.60;95.90
31729;DHT22;18309;43.658;1.312;2022-08-01T07:20:07;22.60;95.80
31729;DHT22;18309;43.658;1.312;2022-08-01T07:22:32;22.70;95.60
31729;DHT22;18309;43.658;1.312;2022-08-01T07:24:58;22.60;95.80
31729;DHT22;18309;43.658;1.312;2022-08-01T07:27:24;22.70;95.60
31729;DHT22;18309;43.658;1.312;2022-08-01T07:29:49;22.80;95.10
31729;DHT22;18309;43.658;1.312;2022-08-01T07:32:15;22.90;95.20
31729;DHT22;18309;43.658;1.312;2022-08-01T07:34:41;23.00;95.00
31729;DHT22;18309;43.658;1.312;2022-08-01T07:37:06;23.00;94.90
31729;DHT22;18309;43.658;1.312;2022-08-01T07:39:32;23.00;94.60
31729;DHT22;18309;43.658;1.312;2022-08-01T07:41:58;23.20;94.50
31729;DHT22;18309;43.658;1.312;2022-08-01T07:44:23;23.10;94.70
31729;DHT22;18309;43.658;1.312;2022-08-01T07:46:49;23.30;94.60
31729;DHT22;18309;43.658;1.312;2022-08-01T07:49:15;23.40;94.50
31729;DHT22;18309;43.658;1.312;2022-08-01T07:51:40;23.50;94.20
31729;DHT22;18309;43.658;1.312;2022-08-01T07:54:06;23.60;94.00
31729;DHT22;18309;43.658;1.312;2022-08-01T07:56:33;23.70;93.50
31729;DHT22;18309;43.658;1.312;2022-08-01T07:58:58;23.70;93.60
31729;DHT22;18309;43.658;1.312;2022-08-01T08:01:24;23.80;93.30
31729;DHT22;18309;43.658;1.312;2022-08-01T08:03:49;23.80;93.00
31729;DHT22;18309;43.658;1.312;2022-08-01T08:06:15;23.90;93.10
31729;DHT22;18309;43.658;1.312;2022-08-01T08:08:41;23.90;92.90
31729;DHT22;18309;43.658;1.312;2022-08-01T08:11:07;23.90;93.10
31729;DHT22;18309;43.658;1.312;2022-08-01T08:13:33;23.90;92.90
31729;DHT22;18309;43.658;1.312;2022-08-01T08:15:58;24.00;92.70
31729;DHT22;18309;43.658;1.312;2022-08-01T08:18:25;24.00;92.40
31729;DHT22;18309;43.658;1.312;2022-08-01T08:20:51;24.20;92.50
31729;DHT22;18309;43.658;1.312;2022-08-01T08:23:16;24.10;91.80
31729;DHT22;18309;43.658;1.312;2022-08-01T08:26:01;24.10;92.10
31729;DHT22;18309;43.658;1.312;2022-08-01T08:28:26;24.20;91.90
31729;DHT22;18309;43.658;1.312;2022-08-01T08:30:52;24.30;92.00
31729;DHT22;18309;43.658;1.312;2022-08-01T08:33:20;24.30;91.90
31729;DHT22;18309;43.658;1.312;2022-08-01T08:35:46;24.40;91.60
31729;DHT22;18309;43.658;1.312;2022-08-01T08:38:11;24.40;91.50
31729;DHT22;18309;43.658;1.312;2022-08-01T08:40:37;24.40;91.30
31729;DHT22;18309;43.658;1.312;2022-08-01T08:43:06;24.60;91.30
31729;DHT22;18309;43.658;1.312;2022-08-01T08:45:33;24.60;90.80
31729;DHT22;18309;43.658;1.312;2022-08-01T08:47:59;24.70;91.00
31729;DHT22;18309;43.658;1.312;2022-08-01T08:50:25;24.70;90.90
31729;DHT22;18309;43.658;1.312;2022-08-01T08:52:54;24.70;90.80
31729;DHT22;18309;43.658;1.312;2022-08-01T08:55:20;24.70;90.60
31729;DHT22;18309;43.658;1.312;2022-08-01T08:57:47;24.80;90.70
31729;DHT22;18309;43.658;1.312;2022-08-01T09:00:14;24.80;90.30
31729;DHT22;18309;43.658;1.312;2022-08-01T09:02:47;24.80;90.20
31729;DHT22;18309;43.658;1.312;2022-08-01T09:05:15;24.90;90.30
31729;DHT22;18309;43.658;1.312;2022-08-01T09:07:40;25.00;90.20
31729;DHT22;18309;43.658;1.312;2022-08-01T09:10:07;25.00;90.20
31729;DHT22;18309;43.658;1.312;2022-08-01T09:12:36;25.00;90.00
31729;DHT22;18309;43.658;1.312;2022-08-01T09:15:01;25.10;90.00
31729;DHT22;18309;43.658;1.312;2022-08-01T09:17:27;25.30;90.00
31729;DHT22;18309;43.658;1.312;2022-08-01T09:19:56;25.30;89.20
31729;DHT22;18309;43.658;1.312;2022-08-01T09:22:23;25.40;89.30
31729;DHT22;18309;43.658;1.312;2022-08-01T09:25:07;25.40;89.20
31729;DHT22;18309;43.658;1.312;2022-08-01T09:27:34;25.50;88.10
31729;DHT22;18309;43.658;1.312;2022-08-01T09:30:21;25.50;88.00
31729;DHT22;18309;43.658;1.312;2022-08-01T09:32:58;25.50;88.00
31729;DHT22;18309;43.658;1.312;2022-08-01T09:35:33;25.60;88.40
31729;DHT22;18309;43.658;1.312;2022-08-01T09:38:19;25.70;88.30
31729;DHT22;18309;43.658;1.312;2022-08-01T09:40:56;25.80;87.30
31729;DHT22;18309;43.658;1.312;2022-08-01T09:43:24;25.80;87.30
31729;DHT22;18309;43.658;1.312;2022-08-01T09:45:50;25.80;87.00
31729;DHT22;18309;43.658;1.312;2022-08-01T09:48:17;25.90;87.10
31729;DHT22;18309;43.658;1.312;2022-08-01T09:50:44;25.90;86.90
31729;DHT22;18309;43.658;1.312;2022-08-01T09:53:11;26.10;86.80
31729;DHT22;18309;43.658;1.312;2022-08-01T09:55:38;26.10;86.60
31729;DHT22;18309;43.658;1.312;2022-08-01T09:58:04;26.10;86.60
31729;DHT22;18309;43.658;1.312;2022-08-01T10:00:31;26.30;86.60
31729;DHT22;18309;43.658;1.312;2022-08-01T10:03:18;26.30;85.60
31729;DHT22;18309;43.658;1.312;2022-08-01T10:08:53;26.40;85.10
31729;DHT22;18309;43.658;1.312;2022-08-01T10:11:18;26.30;84.60
31729;DHT22;18309;43.658;1.312;2022-08-01T10:13:47;26.40;85.10
31729;DHT22;18309;43.658;1.312;2022-08-01T10:16:14;26.50;85.20
31729;DHT22;18309;43.658;1.312;2022-08-01T10:18:41;26.60;84.40
31729;DHT22;18309;43.658;1.312;2022-08-01T10:21:09;26.70;84.50
31729;DHT22;18309;43.658;1.312;2022-08-01T10:23:37;26.80;83.20
31729;DHT22;18309;43.658;1.312;2022-08-01T10:26:08;26.90;83.70
31729;DHT22;18309;43.658;1.312;2022-08-01T10:28:36;26.90;83.80
31729;DHT22;18309;43.658;1.312;2022-08-01T10:31:02;27.00;83.50
31729;DHT22;18309;43.658;1.312;2022-08-01T10:33:29;27.10;82.70
31729;DHT22;18309;43.658;1.312;2022-08-01T10:35:56;27.10;82.50
31729;DHT22;18309;43.658;1.312;2022-08-01T10:38:22;27.20;82.60
31729;DHT22;18309;43.658;1.312;2022-08-01T10:40:49;27.20;82.40
31729;DHT22;18309;43.658;1.312;2022-08-01T10:43:16;27.30;82.50
31729;DHT22;18309;43.658;1.312;2022-08-01T10:45:43;27.30;82.00
31729;DHT22;18309;43.658;1.312;2022-08-01T10:50:47;27.40;81.90
31729;DHT22;18309;43.658;1.312;2022-08-01T10:53:21;27.50;81.30
31729;DHT22;18309;43.658;1.312;2022-08-01T10:55:50;27.60;80.30
31729;DHT22;18309;43.658;1.312;2022-08-01T10:58:21;27.60;80.10
31729;DHT22;18309;43.658;1.312;2022-08-01T11:00:47;27.70;79.90
31729;DHT22;18309;43.658;1.312;2022-08-01T11:03:13;27.50;80.80
31729;DHT22;18309;43.658;1.312;2022-08-01T11:05:40;27.50;81.30
31729;DHT22;18309;43.658;1.312;2022-08-01T11:08:21;27.40;81.70
31729;DHT22;18309;43.658;1.312;2022-08-01T11:10:47;27.30;82.00
31729;DHT22;18309;43.658;1.312;2022-08-01T11:13:13;27.30;82.00
31729;DHT22;18309;43.658;1.312;2022-08-01T11:15:40;27.30;81.60
31729;DHT22;18309;43.658;1.312;2022-08-01T11:21:01;27.30;81.40
31729;DHT22;18309;43.658;1.312;2022-08-01T11:23:47;27.30;81.70
31729;DHT22;18309;43.658;1.312;2022-08-01T11:26:13;27.30;80.80
31729;DHT22;18309;43.658;1.312;2022-08-01T11:28:40;27.40;80.60
31729;DHT22;18309;43.658;1.312;2022-08-01T11:38:46;27.60;79.40
31729;DHT22;18309;43.658;1.312;2022-08-01T11:41:24;27.50;79.40
31729;DHT22;18309;43.658;1.312;2022-08-01T11:44:07;27.60;79.70
31729;DHT22;18309;43.658;1.312;2022-08-01T11:47:00;27.60;80.00
31729;DHT22;18309;43.658;1.312;2022-08-01T11:52:51;27.60;79.00
31729;DHT22;18309;43.658;1.312;2022-08-01T11:57:31;27.70;79.90
31729;DHT22;18309;43.658;1.312;2022-08-01T12:00:03;27.70;80.00
31729;DHT22;18309;43.658;1.312;2022-08-01T12:02:31;27.70;79.00
31729;DHT22;18309;43.658;1.312;2022-08-01T12:04:58;27.80;78.20
31729;DHT22;18309;43.658;1.312;2022-08-01T12:07:26;27.80;78.30
31729;DHT22;18309;43.658;1.312;2022-08-01T12:09:58;27.80;78.30
31729;DHT22;18309;43.658;1.312;2022-08-01T12:12:26;27.90;77.70
31729;DHT22;18309;43.658;1.312;2022-08-01T12:15:00;27.90;77.70
31729;DHT22;18309;43.658;1.312;2022-08-01T12:17:40;27.90;78.00
31729;DHT22;18309;43.658;1.312;2022-08-01T12:20:08;27.90;77.50
31729;DHT22;18309;43.658;1.312;2022-08-01T12:22:35;28.00;77.40
31729;DHT22;18309;43.658;1.312;2022-08-01T12:25:15;28.00;77.40
31729;DHT22;18309;43.658;1.312;2022-08-01T12:27:42;28.00;77.50
31729;DHT22;18309;43.658;1.312;2022-08-01T12:30:13;28.10;76.80
31729;DHT22;18309;43.658;1.312;2022-08-01T12:32:41;28.10;76.70
31729;DHT22;18309;43.658;1.312;2022-08-01T12:35:10;28.10;76.60
31729;DHT22;18309;43.658;1.312;2022-08-01T12:37:42;28.20;75.90
31729;DHT22;18309;43.658;1.312;2022-08-01T12:40:17;28.20;75.50
31729;DHT22;18309;43.658;1.312;2022-08-01T12:42:46;28.20;75.10
31729;DHT22;18309;43.658;1.312;2022-08-01T12:45:14;28.20;74.70
31729;DHT22;18309;43.658;1.312;2022-08-01T12:47:41;28.30;74.10
31729;DHT22;18309;43.658;1.312;2022-08-01T12:50:16;28.30;72.80
31729;DHT22;18309;43.658;1.312;2022-08-01T12:52:43;28.40;71.10
31729;DHT22;18309;43.658;1.312;2022-08-01T12:55:14;28.40;71.50
31729;DHT22;18309;43.658;1.312;2022-08-01T12:57:43;28.40;72.30
31729;DHT22;18309;43.658;1.312;2022-08-01T13:00:25;28.60;72.30
31729;DHT22;18309;43.658;1.312;2022-08-01T13:03:05;28.60;71.60
31729;DHT22;18309;43.658;1.312;2022-08-01T13:05:50;28.70;71.90
31729;DHT22;18309;43.658;1.312;2022-08-01T13:08:18;28.80;71.50
31729;DHT22;18309;43.658;1.312;2022-08-01T13:10:44;29.00;70.90
31729;DHT22;18309;43.658;1.312;2022-08-01T13:13:11;29.00;70.80
31729;DHT22;18309;43.658;1.312;2022-08-01T13:15:39;29.10;71.20
31729;DHT22;18309;43.658;1.312;2022-08-01T13:18:26;29.10;71.40
31729;DHT22;18309;43.658;1.312;2022-08-01T13:21:13;29.20;71.20
31729;DHT22;18309;43.658;1.312;2022-08-01T13:23:41;29.30;70.90
31729;DHT22;18309;43.658;1.312;2022-08-01T13:26:07;29.40;70.00
31729;DHT22;18309;43.658;1.312;2022-08-01T13:28:34;29.50;69.20
31729;DHT22;18309;43.658;1.312;2022-08-01T13:31:06;29.70;67.80
31729;DHT22;18309;43.658;1.312;2022-08-01T13:33:46;29.90;66.50
31729;DHT22;18309;43.658;1.312;2022-08-01T13:36:13;30.00;65.90
31729;DHT22;18309;43.658;1.312;2022-08-01T13:38:40;30.20;64.90
31729;DHT22;18309;43.658;1.312;2022-08-01T13:41:25;30.30;64.50
31729;DHT22;18309;43.658;1.312;2022-08-01T13:43:51;30.50;63.00
31729;DHT22;18309;43.658;1.312;2022-08-01T13:46:17;30.60;62.60
31729;DHT22;18309;43.658;1.312;2022-08-01T13:48:43;30.70;62.80
31729;DHT22;18309;43.658;1.312;2022-08-01T13:51:09;30.90;61.60
31729;DHT22;18309;43.658;1.312;2022-08-01T13:53:35;31.00;60.70
31729;DHT22;18309;43.658;1.312;2022-08-01T13:56:01;31.10;60.10
31729;DHT22;18309;43.658;1.312;2022-08-01T13:58:27;31.30;60.60
31729;DHT22;18309;43.658;1.312;2022-08-01T14:00:54;31.40;61.10
31729;DHT22;18309;43.658;1.312;2022-08-01T14:03:21;31.60;61.30
31729;DHT22;18309;43.658;1.312;2022-08-01T14:05:46;31.70;61.40
31729;DHT22;18309;43.658;1.312;2022-08-01T14:08:12;31.80;61.40
31729;DHT22;18309;43.658;1.312;2022-08-01T14:10:38;32.00;61.00
31729;DHT22;18309;43.658;1.312;2022-08-01T14:13:04;32.10;60.90
31729;DHT22;18309;43.658;1.312;2022-08-01T14:15:30;32.40;60.00
31729;DHT22;18309;43.658;1.312;2022-08-01T14:17:56;32.50;59.80
31729;DHT22;18309;43.658;1.312;2022-08-01T14:20:22;32.70;59.40
31729;DHT22;18309;43.658;1.312;2022-08-01T14:22:48;32.80;59.30
31729;DHT22;18309;43.658;1.312;2022-08-01T14:25:14;33.00;58.10
31729;DHT22;18309;43.658;1.312;2022-08-01T14:27:40;33.20;57.30
31729;DHT22;18309;43.658;1.312;2022-08-01T14:30:08;33.40;57.40
31729;DHT22;18309;43.658;1.312;2022-08-01T14:32:34;33.50;57.20
31729;DHT22;18309;43.658;1.312;2022-08-01T14:35:05;33.70;56.50
31729;DHT22;18309;43.658;1.312;2022-08-01T14:37:32;33.90;56.80
31729;DHT22;18309;43.658;1.312;2022-08-01T14:39:58;34.00;56.10
31729;DHT22;18309;43.658;1.312;2022-08-01T14:42:25;34.20;56.20
31729;DHT22;18309;43.658;1.312;2022-08-01T14:44:51;34.40;55.40
31729;DHT22;18309;43.658;1.312;2022-08-01T14:47:16;34.40;55.70
31729;DHT22;18309;43.658;1.312;2022-08-01T14:49:42;34.60;55.80
31729;DHT22;18309;43.658;1.312;2022-08-01T14:52:08;34.80;55.10
31729;DHT22;18309;43.658;1.312;2022-08-01T14:54:33;35.00;54.30
31729;DHT22;18309;43.658;1.312;2022-08-01T14:56:59;35.10;53.50
31729;DHT22;18309;43.658;1.312;2022-08-01T14:59:25;35.30;52.90
31729;DHT22;18309;43.658;1.312;2022-08-01T15:01:51;35.40;52.60
31729;DHT22;18309;43.658;1.312;2022-08-01T15:04:16;35.50;52.00
31729;DHT22;18309;43.658;1.312;2022-08-01T15:06:43;35.60;51.80
31729;DHT22;18309;43.658;1.312;2022-08-01T15:09:09;35.80;51.80
31729;DHT22;18309;43.658;1.312;2022-08-01T15:11:36;36.00;51.20
31729;DHT22;18309;43.658;1.312;2022-08-01T15:14:01;36.10;51.20
31729;DHT22;18309;43.658;1.312;2022-08-01T15:16:46;36.20;50.30
31729;DHT22;18309;43.658;1.312;2022-08-01T15:19:12;36.50;49.80
31729;DHT22;18309;43.658;1.312;2022-08-01T15:21:37;36.50;49.20
31729;DHT22;18309;43.658;1.312;2022-08-01T15:24:03;36.70;48.40
31729;DHT22;18309;43.658;1.312;2022-08-01T15:26:29;36.70;47.60
31729;DHT22;18309;43.658;1.312;2022-08-01T15:28:55;36.90;47.40
31729;DHT22;18309;43.658;1.312;2022-08-01T15:31:20;37.00;46.80
31729;DHT22;18309;43.658;1.312;2022-08-01T15:33:46;37.10;46.20
31729;DHT22;18309;43.658;1.312;2022-08-01T15:36:12;37.20;46.30
31729;DHT22;18309;43.658;1.312;2022-08-01T15:38:37;37.40;46.30
31729;DHT22;18309;43.658;1.312;2022-08-01T15:41:03;37.60;46.10
31729;DHT22;18309;43.658;1.312;2022-08-01T15:43:29;37.70;45.70
31729;DHT22;18309;43.658;1.312;2022-08-01T15:45:54;37.80;45.50
31729;DHT22;18309;43.658;1.312;2022-08-01T15:48:20;38.00;45.30
31729;DHT22;18309;43.658;1.312;2022-08-01T15:50:46;38.20;45.50
31729;DHT22;18309;43.658;1.312;2022-08-01T15:53:13;38.40;45.50
31729;DHT22;18309;43.658;1.312;2022-08-01T15:55:39;38.50;45.30
31729;DHT22;18309;43.658;1.312;2022-08-01T15:58:05;38.50;45.00
31729;DHT22;18309;43.658;1.312;2022-08-01T16:00:30;38.70;43.80
31729;DHT22;18309;43.658;1.312;2022-08-01T16:02:56;38.70;42.70
31729;DHT22;18309;43.658;1.312;2022-08-01T16:05:22;38.90;42.00